createdAt,value
2022-11-29T00:01:09.415Z,3.92
2022-11-29T00:04:16.822Z,3.89
2022-11-29T00:07:15.962Z,3.86
2022-11-29T00:10:15.845Z,3.83
2022-11-29T00:13:39.983Z,3.80
2022-11-29T00:16:23.026Z,3.75
2022-11-29T00:19:00.144Z,3.72
2022-11-29T00:22:03.284Z,3.73
2022-11-29T00:24:47.156Z,3.72
2022-11-29T00:30:07.301Z,3.72
2022-11-29T00:39:04.337Z,3.71
2022-11-29T00:41:34.707Z,3.73
2022-11-29T00:44:04.326Z,3.73
2022-11-29T00:46:33.892Z,3.70
2022-11-29T00:49:06.348Z,3.72
2022-11-29T00:51:36.007Z,3.70
2022-11-29T00:54:06.142Z,3.71
2022-11-29T00:56:35.757Z,3.71
2022-11-29T00:59:05.404Z,3.67
2022-11-29T01:01:35.003Z,3.65
2022-11-29T01:04:07.742Z,3.65
2022-11-29T01:06:37.442Z,3.61
2022-11-29T01:09:07.342Z,3.56
2022-11-29T01:11:37.369Z,3.52
2022-11-29T01:14:07.184Z,3.49
2022-11-29T01:16:36.978Z,3.46
2022-11-29T01:19:09.650Z,3.44
2022-11-29T01:21:39.255Z,3.44
2022-11-29T01:24:09.119Z,3.44
2022-11-29T01:26:38.708Z,3.44
2022-11-29T01:29:08.432Z,3.43
2022-11-29T01:31:38.242Z,3.42
2022-11-29T01:34:10.621Z,3.39
2022-11-29T01:36:40.303Z,3.36
2022-11-29T01:39:09.865Z,3.36
2022-11-29T01:41:40.401Z,3.33
2022-11-29T01:44:45.365Z,3.30
2022-11-29T01:47:15.839Z,3.29
2022-11-29T01:49:51.968Z,3.28
2022-11-29T01:52:25.500Z,3.25
2022-11-29T01:54:59.605Z,3.25
2022-11-29T01:57:29.903Z,3.25
2022-11-29T02:00:06.540Z,3.24
2022-11-29T02:02:40.877Z,3.23
2022-11-29T02:05:15.197Z,3.20
2022-11-29T02:07:47.142Z,3.19
2022-11-29T02:10:18.792Z,3.19
2022-11-29T02:13:01.656Z,3.20
2022-11-29T02:16:02.365Z,3.20
2022-11-29T02:18:50.550Z,3.20
2022-11-29T02:21:52.222Z,3.21
2022-11-29T02:24:54.358Z,3.25
2022-11-29T02:28:19.558Z,3.30
2022-11-29T02:31:10.312Z,3.31
2022-11-29T02:34:30.637Z,3.32
2022-11-29T02:37:25.975Z,3.32
2022-11-29T02:40:27.765Z,3.35
2022-11-29T02:43:47.128Z,3.40
2022-11-29T02:46:42.571Z,3.41
2022-11-29T02:49:31.412Z,3.43
2022-11-29T02:52:17.893Z,3.43
2022-11-29T02:55:03.391Z,3.44
2022-11-29T02:57:54.361Z,3.45
2022-11-29T03:00:34.927Z,3.45
2022-11-29T03:03:34.729Z,3.44
2022-11-29T03:06:28.818Z,3.35
2022-11-29T03:09:20.839Z,3.33
2022-11-29T03:12:06.203Z,3.33
2022-11-29T03:15:20.153Z,3.30
2022-11-29T03:18:10.517Z,3.35
2022-11-29T03:20:58.055Z,3.37
2022-11-29T03:23:43.008Z,3.38
2022-11-29T03:26:19.211Z,3.38
2022-11-29T03:29:01.244Z,3.35
2022-11-29T03:31:43.598Z,3.36
2022-11-29T03:34:42.882Z,3.37
2022-11-29T03:37:20.133Z,3.33
2022-11-29T03:40:08.318Z,3.32
2022-11-29T03:42:55.061Z,3.33
2022-11-29T03:45:43.792Z,3.32
2022-11-29T03:48:29.475Z,3.32
2022-11-29T03:51:14.614Z,3.32
2022-11-29T03:53:56.064Z,3.33
2022-11-29T03:56:36.509Z,3.35
2022-11-29T03:59:34.442Z,3.36
2022-11-29T04:02:40.990Z,3.38
2022-11-29T04:05:40.315Z,3.41
2022-11-29T04:08:58.307Z,3.47
2022-11-29T04:12:03.718Z,3.51
2022-11-29T04:15:15.448Z,3.53
2022-11-29T04:18:35.990Z,3.58
2022-11-29T04:21:42.880Z,3.61
2022-11-29T04:24:52.990Z,3.65
2022-11-29T04:28:02.162Z,3.70
2022-11-29T04:30:46.951Z,3.75
2022-11-29T04:33:37.729Z,3.75
2022-11-29T04:36:38.625Z,3.76
2022-11-29T04:39:52.135Z,3.75
2022-11-29T04:42:58.175Z,3.76
2022-11-29T04:46:05.697Z,3.80
2022-11-29T04:48:58.164Z,3.83
2022-11-29T04:51:54.266Z,3.85
2022-11-29T04:54:40.937Z,3.87
2022-11-29T04:57:32.745Z,3.90
2022-11-29T05:00:13.971Z,3.94
2022-11-29T05:02:54.969Z,3.97
2022-11-29T05:05:37.949Z,4.01
2022-11-29T05:08:29.386Z,4.06
2022-11-29T05:11:08.678Z,4.09
2022-11-29T05:13:56.941Z,4.12
2022-11-29T05:16:49.704Z,4.14
2022-11-29T05:19:56.567Z,4.15
2022-11-29T05:22:39.196Z,4.17
2022-11-29T05:25:30.697Z,4.19
2022-11-29T05:28:10.034Z,4.20
2022-11-29T05:31:09.868Z,4.20
2022-11-29T05:34:08.109Z,4.25
2022-11-29T05:36:45.422Z,4.27
2022-11-29T05:39:42.069Z,4.30
2022-11-29T05:42:56.645Z,4.33
2022-11-29T05:45:39.314Z,4.36
2022-11-29T05:48:24.157Z,4.39
2022-11-29T05:51:26.637Z,4.43
2022-11-29T05:54:09.610Z,4.45
2022-11-29T05:59:51.046Z,4.48
2022-11-29T06:02:55.937Z,4.49
2022-11-29T06:05:51.978Z,4.51
2022-11-29T06:09:03.549Z,4.54
2022-11-29T06:12:04.431Z,4.57
2022-11-29T06:19:00.796Z,4.62
2022-11-29T06:28:20.655Z,4.67
2022-11-29T06:31:06.251Z,4.66
2022-11-29T06:33:55.796Z,4.64
2022-11-29T06:36:38.918Z,4.62
2022-11-29T06:39:09.388Z,4.58
2022-11-29T06:41:41.756Z,4.59
2022-11-29T06:44:13.594Z,4.58
2022-11-29T06:46:49.012Z,4.57
2022-11-29T06:49:25.988Z,4.52
2022-11-29T06:52:08.167Z,4.52
2022-11-29T06:54:53.188Z,4.49
2022-11-29T06:57:36.294Z,4.50
2022-11-29T07:00:12.240Z,4.47
2022-11-29T07:03:14.203Z,4.44
2022-11-29T07:05:44.547Z,4.43
2022-11-29T07:08:18.900Z,4.42
2022-11-29T07:10:50.205Z,4.38
2022-11-29T07:13:24.675Z,4.34
2022-11-29T07:16:04.527Z,4.32
2022-11-29T07:18:43.037Z,4.28
2022-11-29T07:21:22.263Z,4.24
2022-11-29T07:24:00.443Z,4.21
2022-11-29T07:26:37.899Z,4.16
2022-11-29T07:29:25.922Z,4.15
2022-11-29T07:32:06.089Z,4.16
2022-11-29T07:34:43.299Z,4.15
2022-11-29T07:37:25.408Z,4.15
2022-11-29T07:40:02.693Z,4.16
2022-11-29T07:42:48.523Z,4.17
2022-11-29T07:45:26.763Z,4.18
2022-11-29T07:47:56.562Z,4.19
2022-11-29T07:50:26.908Z,4.20
2022-11-29T07:55:34.836Z,4.25
2022-11-29T07:58:04.650Z,4.29
2022-11-29T08:00:36.855Z,4.31
2022-11-29T08:03:07.987Z,4.34
2022-11-29T08:05:37.990Z,4.36
2022-11-29T08:08:08.536Z,4.38
2022-11-29T08:10:38.166Z,4.41
2022-11-29T08:13:07.851Z,4.43
2022-11-29T08:15:40.002Z,4.47
2022-11-29T08:18:09.601Z,4.47
2022-11-29T08:20:39.461Z,4.50
2022-11-29T08:23:09.167Z,4.54
2022-11-29T08:25:38.754Z,4.58
2022-11-29T08:28:08.889Z,4.64
2022-11-29T08:30:41.270Z,4.66
2022-11-29T08:33:10.871Z,4.69
2022-11-29T08:35:42.240Z,4.71
2022-11-29T08:38:11.816Z,4.73
2022-11-29T08:40:41.595Z,4.76
2022-11-29T08:43:11.234Z,4.82
2022-11-29T08:45:43.415Z,4.87
2022-11-29T08:48:13.153Z,4.94
2022-11-29T08:50:42.734Z,4.97
2022-11-29T08:56:17.132Z,5.04
2022-11-29T08:58:52.282Z,5.08
2022-11-29T09:01:24.973Z,5.13
2022-11-29T09:04:03.683Z,5.16
2022-11-29T09:06:35.400Z,5.20
2022-11-29T09:09:04.987Z,5.23
2022-11-29T09:11:37.269Z,5.26
2022-11-29T09:14:08.609Z,5.30
2022-11-29T09:16:41.660Z,5.33
2022-11-29T09:19:11.410Z,5.36
2022-11-29T09:21:41.064Z,5.37
2022-11-29T09:24:10.968Z,5.39
2022-11-29T09:26:42.283Z,5.47
2022-11-29T09:29:12.001Z,5.56
2022-11-29T09:31:45.225Z,5.58
2022-11-29T09:34:15.646Z,5.62
2022-11-29T09:36:45.854Z,5.68
2022-11-29T09:39:15.368Z,5.73
2022-11-29T09:42:11.331Z,5.88
2022-11-29T09:44:54.185Z,5.97
2022-11-29T09:47:49.322Z,5.99
2022-11-29T09:50:33.472Z,6.04
2022-11-29T09:56:14.218Z,6.08
2022-11-29T09:58:49.583Z,6.02
2022-11-29T10:01:24.894Z,6.22
2022-11-29T10:04:03.159Z,6.43
2022-11-29T10:06:38.977Z,6.32
2022-11-29T10:09:16.722Z,6.41
2022-11-29T10:12:00.014Z,6.39
2022-11-29T10:14:34.380Z,6.46
2022-11-29T10:17:10.536Z,6.55
2022-11-29T10:19:47.445Z,6.61
2022-11-29T10:22:23.622Z,6.66
2022-11-29T10:25:00.121Z,6.67
2022-11-29T10:27:31.409Z,6.79
2022-11-29T10:30:02.756Z,6.89
2022-11-29T10:32:34.712Z,6.95
2022-11-29T10:38:14.479Z,6.95
2022-11-29T10:40:42.658Z,7.04
2022-11-29T10:43:12.437Z,6.97
2022-11-29T10:45:50.467Z,7.03
2022-11-29T10:48:22.596Z,7.07
2022-11-29T10:50:55.871Z,7.04
2022-11-29T10:53:34.581Z,7.02
2022-11-29T10:56:08.812Z,7.02
2022-11-29T10:58:39.366Z,7.12
2022-11-29T11:01:10.965Z,7.05
2022-11-29T11:03:43.407Z,7.21
2022-11-29T11:06:18.880Z,7.18
2022-11-29T11:08:50.701Z,7.05
2022-11-29T11:16:03.503Z,7.04
2022-11-29T11:38:34.106Z,7.36
2022-11-29T12:18:06.315Z,7.46
2022-11-29T12:25:37.193Z,7.36
2022-11-29T12:28:31.457Z,7.33
2022-11-29T12:31:14.217Z,7.36
2022-11-29T12:33:52.144Z,7.31
2022-11-29T12:36:36.973Z,7.19
2022-11-29T12:39:21.581Z,7.23
2022-11-29T12:41:59.027Z,7.29
2022-11-29T12:44:42.602Z,7.33
2022-11-29T12:47:39.092Z,7.33
2022-11-29T12:50:28.724Z,7.31
2022-11-29T12:53:12.378Z,7.30
2022-11-29T12:55:52.320Z,7.18
2022-11-29T12:58:34.551Z,7.18
2022-11-29T13:01:15.464Z,7.19
2022-11-29T13:04:00.148Z,7.23
2022-11-29T13:06:36.871Z,7.33
2022-11-29T13:09:22.536Z,7.31
2022-11-29T13:11:58.546Z,7.39
2022-11-29T13:14:43.853Z,7.47
2022-11-29T13:17:28.869Z,7.40
2022-11-29T13:20:05.878Z,7.58
2022-11-29T13:22:44.194Z,7.59
2022-11-29T13:25:20.918Z,7.51
2022-11-29T13:28:01.768Z,7.61
2022-11-29T13:30:34.481Z,7.57
2022-11-29T13:33:37.132Z,7.53
2022-11-29T13:36:28.825Z,7.60
2022-11-29T13:39:09.455Z,7.59
2022-11-29T13:41:54.105Z,7.55
2022-11-29T13:44:36.115Z,7.58
2022-11-29T13:47:11.742Z,7.65
2022-11-29T13:49:58.526Z,7.71
2022-11-29T13:55:29.455Z,7.78
2022-11-29T13:58:22.522Z,7.76
2022-11-29T14:00:53.947Z,7.75
2022-11-29T14:03:36.150Z,7.79
2022-11-29T14:06:14.037Z,7.72
2022-11-29T14:11:48.826Z,7.71
2022-11-29T14:14:27.709Z,7.82
2022-11-29T14:17:01.962Z,7.89
2022-11-29T14:19:34.480Z,7.95
2022-11-29T14:22:33.658Z,7.97
2022-11-29T14:28:32.413Z,7.93
2022-11-29T14:31:04.120Z,7.94
2022-11-29T14:34:00.761Z,7.96
2022-11-29T14:36:47.335Z,7.96
2022-11-29T14:39:38.851Z,7.97
2022-11-29T14:42:18.664Z,7.97
2022-11-29T14:44:58.549Z,7.96
2022-11-29T14:47:31.944Z,7.97
2022-11-29T14:50:05.642Z,7.97
2022-11-29T14:52:36.310Z,7.98
2022-11-29T14:55:10.923Z,7.98
2022-11-29T14:58:07.207Z,7.99
2022-11-29T15:00:44.341Z,7.98
2022-11-29T15:03:20.802Z,7.99
2022-11-29T15:05:54.906Z,7.97
2022-11-29T15:08:35.173Z,7.98
2022-11-29T15:11:13.885Z,7.97
2022-11-29T15:13:57.645Z,7.98
2022-11-29T15:16:44.862Z,7.95
2022-11-29T15:19:46.197Z,7.94
2022-11-29T15:22:20.237Z,7.92
2022-11-29T15:24:55.631Z,7.88
2022-11-29T15:27:26.032Z,7.84
2022-11-29T15:29:59.977Z,7.83
2022-11-29T15:32:33.495Z,7.82
2022-11-29T15:37:45.890Z,7.78
2022-11-29T15:40:18.010Z,7.77
2022-11-29T15:42:51.488Z,7.76
2022-11-29T15:45:33.521Z,7.74
2022-11-29T15:48:21.734Z,7.71
2022-11-29T15:50:59.233Z,7.68
2022-11-29T15:53:35.087Z,7.64
2022-11-29T15:56:08.041Z,7.59
2022-11-29T15:58:39.231Z,7.55
2022-11-29T16:01:11.839Z,7.50
2022-11-29T16:03:48.378Z,7.45
2022-11-29T16:06:27.099Z,7.42
2022-11-29T16:08:57.430Z,7.39
2022-11-29T16:11:31.446Z,7.33
2022-11-29T16:14:06.548Z,7.27
2022-11-29T16:16:38.857Z,7.22
2022-11-29T16:19:13.325Z,7.17
2022-11-29T16:21:46.223Z,7.14
2022-11-29T16:24:22.218Z,7.10
2022-11-29T16:26:53.716Z,7.02
2022-11-29T16:29:26.259Z,6.95
2022-11-29T16:31:58.832Z,6.89
2022-11-29T16:37:10.567Z,6.73
2022-11-29T16:39:41.580Z,6.70
2022-11-29T16:42:23.425Z,6.67
2022-11-29T16:45:08.323Z,6.61
2022-11-29T16:47:58.242Z,6.58
2022-11-29T16:50:29.736Z,6.54
2022-11-29T16:53:00.021Z,6.48
2022-11-29T16:55:29.600Z,6.38
2022-11-29T16:57:59.485Z,6.32
2022-11-29T17:00:35.225Z,6.28
2022-11-29T17:03:07.478Z,6.24
2022-11-29T17:05:43.119Z,6.26
2022-11-29T17:08:14.496Z,6.22
2022-11-29T17:10:44.186Z,6.16
2022-11-29T17:13:14.381Z,6.16
2022-11-29T17:15:44.016Z,6.13
2022-11-29T17:18:16.251Z,6.12
2022-11-29T17:20:45.961Z,6.12
2022-11-29T17:23:15.691Z,6.11
2022-11-29T17:25:45.295Z,6.09
2022-11-29T17:28:14.907Z,6.10
2022-11-29T17:30:44.612Z,6.10
2022-11-29T17:33:16.801Z,6.09
2022-11-29T17:35:46.395Z,6.08
2022-11-29T17:38:16.412Z,6.10
2022-11-29T17:40:46.023Z,6.09
2022-11-29T17:43:15.787Z,6.07
2022-11-29T17:45:45.436Z,6.05
2022-11-29T17:48:18.831Z,6.04
2022-11-29T17:50:48.445Z,6.02
2022-11-29T17:53:17.954Z,6.02
2022-11-29T17:55:47.516Z,6.02
2022-11-29T17:58:17.085Z,6.00
2022-11-29T18:00:46.788Z,6.02
2022-11-29T18:03:19.029Z,6.03
2022-11-29T18:05:48.653Z,6.01
2022-11-29T18:08:18.214Z,5.98
2022-11-29T18:10:47.819Z,5.97
2022-11-29T18:13:17.472Z,5.94
2022-11-29T18:15:47.056Z,5.92
2022-11-29T18:18:19.241Z,5.88
2022-11-29T18:20:48.855Z,5.88
2022-11-29T18:23:18.518Z,5.86
2022-11-29T18:25:57.932Z,5.84
2022-11-29T18:28:27.701Z,5.81
2022-11-29T18:30:57.380Z,5.78
2022-11-29T18:33:30.358Z,5.76
2022-11-29T18:36:05.377Z,5.71
2022-11-29T18:38:35.484Z,5.67
2022-11-29T18:41:09.445Z,5.67
2022-11-29T18:43:40.208Z,5.64
2022-11-29T18:46:11.927Z,5.59
2022-11-29T18:48:45.122Z,5.56
2022-11-29T18:51:17.029Z,5.53
2022-11-29T18:53:47.430Z,5.52
2022-11-29T18:56:19.344Z,5.48
2022-11-29T18:58:54.133Z,5.46
2022-11-29T19:01:29.548Z,5.42
2022-11-29T19:04:03.660Z,5.40
2022-11-29T19:06:39.233Z,5.38
2022-11-29T19:09:10.203Z,5.35
2022-11-29T19:11:39.782Z,5.35
2022-11-29T19:14:11.973Z,5.33
2022-11-29T19:16:42.756Z,5.34
2022-11-29T19:19:15.691Z,5.34
2022-11-29T19:21:45.276Z,5.36
2022-11-29T19:24:17.997Z,5.36
2022-11-29T19:26:49.403Z,5.37
2022-11-29T19:29:20.635Z,5.38
2022-11-29T19:31:50.655Z,5.40
2022-11-29T19:34:23.078Z,5.44
2022-11-29T19:36:52.800Z,5.44
2022-11-29T19:39:22.391Z,5.45
2022-11-29T19:41:51.994Z,5.44
2022-11-29T19:44:26.521Z,5.44
2022-11-29T19:46:59.324Z,5.42
2022-11-29T19:49:31.855Z,5.43
2022-11-29T19:52:01.615Z,5.41
2022-11-29T19:54:31.416Z,5.41
2022-11-29T19:57:02.590Z,5.43
2022-11-29T19:59:33.472Z,5.46
2022-11-29T20:02:03.239Z,5.46
2022-11-29T20:04:35.817Z,5.49
2022-11-29T20:07:06.016Z,5.50
2022-11-29T20:09:36.142Z,5.52
2022-11-29T20:12:05.846Z,5.52
2022-11-29T20:14:35.419Z,5.54
2022-11-29T20:17:05.008Z,5.57
2022-11-29T20:19:37.747Z,5.57
2022-11-29T20:22:07.556Z,5.58
2022-11-29T20:24:42.620Z,5.58
2022-11-29T20:27:14.952Z,5.58
2022-11-29T20:29:44.871Z,5.59
2022-11-29T20:32:14.942Z,5.61
2022-11-29T20:34:48.024Z,5.62
2022-11-29T20:37:36.119Z,5.64
2022-11-29T20:40:08.363Z,5.65
2022-11-29T20:42:55.459Z,5.66
2022-11-29T20:45:26.447Z,5.68
2022-11-29T20:48:01.398Z,5.69
2022-11-29T20:50:46.687Z,5.69
2022-11-29T20:53:29.451Z,5.69
2022-11-29T20:56:00.454Z,5.71
2022-11-29T20:58:30.693Z,5.71
2022-11-29T21:01:01.407Z,5.71
2022-11-29T21:03:32.305Z,5.71
2022-11-29T21:06:09.812Z,5.70
2022-11-29T21:08:39.663Z,5.71
2022-11-29T21:11:11.943Z,5.68
2022-11-29T21:13:42.617Z,5.63
2022-11-29T21:16:15.008Z,5.59
2022-11-29T21:18:45.342Z,5.53
2022-11-29T21:21:27.576Z,5.45
2022-11-29T21:24:07.043Z,5.40
2022-11-29T21:26:42.227Z,5.36
2022-11-29T21:29:18.770Z,5.31
2022-11-29T21:31:49.880Z,5.26
2022-11-29T21:34:19.512Z,5.23
2022-11-29T21:36:57.346Z,5.17
2022-11-29T21:39:53.187Z,5.14
2022-11-29T21:42:23.143Z,5.14
2022-11-29T21:44:54.143Z,5.12
2022-11-29T21:47:24.052Z,5.09
2022-11-29T21:50:05.055Z,5.05
2022-11-29T21:52:37.500Z,4.99
2022-11-29T21:55:08.236Z,4.93
2022-11-29T21:57:38.883Z,4.90
2022-11-29T22:00:10.431Z,4.85
2022-11-29T22:02:40.193Z,4.80
2022-11-29T22:05:11.035Z,4.74
2022-11-29T22:07:43.288Z,4.70
2022-11-29T22:10:13.980Z,4.72
2022-11-29T22:12:51.827Z,4.69
2022-11-29T22:15:25.036Z,4.64
2022-11-29T22:17:55.731Z,4.58
2022-11-29T22:20:25.412Z,4.51
2022-11-29T22:22:58.962Z,4.45
2022-11-29T22:25:28.634Z,4.38
2022-11-29T22:27:58.277Z,4.35
2022-11-29T22:30:27.990Z,4.37
2022-11-29T22:32:58.599Z,4.37
2022-11-29T22:35:28.207Z,4.39
2022-11-29T22:38:00.729Z,4.39
2022-11-29T22:40:30.636Z,4.42
2022-11-29T22:43:00.211Z,4.43
2022-11-29T22:45:29.761Z,4.43
2022-11-29T22:47:59.445Z,4.44
2022-11-29T22:50:29.300Z,4.49
2022-11-29T22:53:01.617Z,4.49
2022-11-29T22:55:31.224Z,4.47
2022-11-29T22:58:00.871Z,4.45
2022-11-29T23:00:30.936Z,4.41
2022-11-29T23:03:00.565Z,4.39
2022-11-29T23:05:32.379Z,4.38
2022-11-29T23:08:04.870Z,4.37
2022-11-29T23:10:34.538Z,4.40
2022-11-29T23:13:04.784Z,4.40
2022-11-29T23:15:34.290Z,4.39
2022-11-29T23:20:47.575Z,4.40
2022-11-29T23:23:19.928Z,4.40
2022-11-29T23:25:51.406Z,4.40
2022-11-29T23:28:21.151Z,4.40
2022-11-29T23:30:50.715Z,4.41
2022-11-29T23:33:20.316Z,4.45
2022-11-29T23:35:49.922Z,4.46
2022-11-29T23:38:22.207Z,4.47
2022-11-29T23:40:51.699Z,4.47
2022-11-29T23:43:21.939Z,4.48
2022-11-29T23:45:51.766Z,4.51
2022-11-29T23:48:21.351Z,4.53
2022-11-29T23:50:51.067Z,4.57
2022-11-29T23:53:23.236Z,4.56
2022-11-29T23:55:59.011Z,4.58
2022-11-29T23:58:29.363Z,4.59
